createdAt,value
2017-08-19T04:08:14.610Z,13.40
2017-08-19T04:10:41.519Z,13.70
2017-08-19T04:13:08.433Z,13.20
2017-08-19T04:15:35.475Z,14.40
2017-08-19T04:18:02.469Z,15.30
2017-08-19T04:20:29.386Z,13.23
2017-08-19T04:22:56.346Z,14.23
2017-08-19T04:25:23.259Z,13.60
2017-08-19T04:27:50.890Z,13.67
2017-08-19T04:30:17.816Z,13.93
2017-08-19T04:32:46.548Z,14.23
2017-08-19T04:35:13.550Z,13.40
2017-08-19T04:37:40.853Z,14.00
2017-08-19T04:40:07.862Z,12.73
2017-08-19T04:42:34.830Z,13.60
2017-08-19T04:45:01.746Z,13.40
2017-08-19T04:47:29.069Z,12.80
2017-08-19T04:49:55.935Z,14.73
2017-08-19T04:52:22.799Z,16.40
2017-08-19T04:54:49.667Z,16.17
2017-08-19T04:57:16.507Z,17.00
2017-08-19T04:59:43.416Z,14.90
2017-08-19T05:02:10.279Z,13.63
2017-08-19T05:04:37.133Z,13.50
2017-08-19T05:07:04.846Z,13.40
2017-08-19T05:09:31.646Z,14.70
2017-08-19T05:11:58.513Z,13.57
2017-08-19T05:14:25.393Z,15.10
2017-08-19T05:16:52.327Z,15.53
2017-08-19T05:19:19.186Z,14.63
2017-08-19T05:21:46.054Z,14.73
2017-08-19T05:24:12.955Z,14.73
2017-08-19T05:26:39.763Z,14.83
2017-08-19T05:29:06.656Z,14.40
2017-08-19T05:31:33.477Z,14.50
2017-08-19T05:34:00.332Z,15.03
2017-08-19T05:36:27.217Z,14.97
2017-08-19T05:38:54.016Z,15.90
2017-08-19T05:41:20.829Z,14.33
2017-08-19T05:43:47.733Z,15.30
2017-08-19T05:46:14.648Z,15.43
2017-08-19T05:48:41.596Z,14.90
2017-08-19T05:51:08.585Z,15.23
2017-08-19T05:53:35.521Z,15.20
2017-08-19T05:56:02.394Z,13.67
2017-08-19T05:58:29.285Z,15.20
2017-08-19T06:00:56.132Z,15.67
2017-08-19T06:03:23.088Z,15.17
2017-08-19T06:05:50.026Z,16.23
2017-08-19T06:08:16.996Z,16.57
2017-08-19T06:10:43.842Z,16.20
2017-08-19T06:13:10.696Z,15.70
2017-08-19T06:15:37.583Z,16.90
2017-08-19T06:18:04.486Z,16.27
2017-08-19T06:20:31.327Z,17.70
2017-08-19T06:22:58.250Z,15.83
2017-08-19T06:25:25.112Z,14.97
2017-08-19T06:27:52.020Z,18.07
2017-08-19T06:30:18.814Z,17.20
2017-08-19T06:32:46.411Z,18.27
2017-08-19T06:35:13.281Z,16.30
2017-08-19T06:37:40.141Z,18.40
2017-08-19T06:40:06.978Z,16.47
2017-08-19T06:42:33.817Z,17.47
2017-08-19T06:45:00.643Z,17.80
2017-08-19T06:47:27.429Z,15.70
2017-08-19T06:49:54.312Z,16.53
2017-08-19T06:52:21.194Z,16.27
2017-08-19T06:54:47.979Z,15.50
2017-08-19T06:57:14.900Z,16.13
2017-08-19T06:59:41.709Z,16.97
2017-08-19T07:02:08.576Z,15.37
2017-08-19T07:04:36.430Z,15.90
2017-08-19T07:07:03.221Z,17.60
2017-08-19T07:09:29.999Z,16.03
2017-08-19T07:11:56.890Z,15.50
2017-08-19T07:14:23.699Z,15.33
2017-08-19T07:16:52.560Z,15.77
2017-08-19T07:19:19.426Z,15.30
2017-08-19T07:21:47.163Z,14.90
2017-08-19T07:24:13.957Z,15.20
2017-08-19T07:26:41.176Z,14.77
2017-08-19T07:29:08.013Z,15.00
2017-08-19T07:31:34.807Z,14.70
2017-08-19T07:34:01.715Z,14.23
2017-08-19T07:36:28.574Z,14.37
2017-08-19T07:38:55.441Z,15.50
2017-08-19T07:41:22.342Z,14.00
2017-08-19T07:43:49.202Z,13.73
2017-08-19T07:46:16.063Z,13.60
2017-08-19T07:48:42.971Z,14.03
2017-08-19T07:51:09.820Z,12.60
2017-08-19T07:53:36.688Z,13.47
2017-08-19T07:56:03.563Z,13.50
2017-08-19T07:58:30.433Z,13.00
2017-08-19T08:00:57.346Z,13.03
2017-08-19T08:03:24.256Z,15.70
2017-08-19T08:05:52.902Z,15.87
2017-08-19T08:08:19.792Z,15.27
2017-08-19T08:10:46.691Z,15.70
2017-08-19T08:13:13.557Z,14.00
2017-08-19T08:15:41.086Z,14.57
2017-08-19T08:18:07.980Z,12.57
2017-08-19T08:20:34.930Z,12.70
2017-08-19T08:23:02.894Z,13.63
2017-08-19T08:25:30.889Z,12.57
2017-08-19T08:27:57.789Z,12.57
2017-08-19T08:30:24.750Z,13.07
2017-08-19T08:32:51.691Z,14.57
2017-08-19T08:35:20.425Z,13.87
2017-08-19T08:37:47.349Z,12.97
2017-08-19T08:40:15.118Z,14.87
2017-08-19T08:42:42.047Z,12.77
2017-08-19T08:45:08.988Z,11.67
2017-08-19T08:47:35.859Z,11.73
2017-08-19T08:50:02.637Z,11.43
2017-08-19T08:52:29.469Z,11.90
2017-08-19T08:54:56.372Z,11.63
2017-08-19T08:57:23.294Z,11.47
2017-08-19T08:59:50.085Z,11.30
2017-08-19T09:02:16.981Z,11.60
2017-08-19T09:04:44.140Z,11.70
2017-08-19T09:07:10.974Z,11.50
2017-08-19T09:09:37.857Z,10.97
2017-08-19T09:12:04.722Z,11.87
2017-08-19T09:14:31.575Z,10.47
2017-08-19T09:16:59.182Z,10.07
2017-08-19T09:19:26.758Z,9.10
2017-08-19T09:21:53.649Z,9.47
2017-08-19T09:24:21.533Z,8.77
2017-08-19T09:26:48.366Z,8.73
2017-08-19T09:29:15.268Z,9.10
2017-08-19T09:31:42.648Z,8.90
2017-08-19T09:34:09.467Z,8.70
2017-08-19T09:36:36.286Z,8.13
2017-08-19T09:39:03.174Z,8.07
2017-08-19T09:41:30.006Z,8.60
2017-08-19T09:43:57.816Z,9.50
2017-08-19T09:46:24.689Z,9.57
2017-08-19T09:48:51.570Z,9.90
2017-08-19T09:51:18.426Z,9.30
2017-08-19T09:53:45.281Z,9.30
2017-08-19T09:56:13.372Z,8.90
2017-08-19T09:58:40.274Z,9.93
2017-08-19T10:01:07.232Z,9.90
2017-08-19T10:03:34.236Z,10.50
2017-08-19T10:06:01.237Z,9.00
2017-08-19T18:08:50.864Z,11.90
2017-08-19T18:11:18.935Z,12.20
2017-08-19T18:16:17.656Z,11.80
2017-08-19T18:18:44.845Z,12.67
2017-08-19T18:21:11.853Z,12.40
2017-08-19T18:23:38.919Z,12.63
2017-08-19T18:26:05.944Z,13.07
2017-08-19T18:28:32.993Z,12.67
2017-08-19T18:31:00.032Z,13.37
2017-08-19T18:33:27.100Z,15.73
2017-08-19T18:35:54.190Z,13.03
2017-08-19T18:38:21.170Z,12.37
2017-08-19T18:40:48.162Z,12.40
2017-08-19T18:43:15.119Z,12.00
2017-08-19T18:45:43.969Z,12.53
2017-08-19T18:48:12.604Z,14.90
2017-08-19T18:50:39.593Z,14.00
2017-08-19T18:53:06.835Z,14.10
2017-08-19T18:55:33.850Z,14.53
2017-08-19T18:58:01.655Z,18.20
2017-08-19T19:00:28.674Z,14.80
2017-08-19T19:02:55.748Z,13.30
2017-08-19T19:05:22.707Z,14.17
2017-08-19T19:07:49.679Z,13.57
2017-08-19T19:10:16.928Z,12.50
2017-08-19T19:12:43.927Z,14.33
2017-08-19T19:15:10.943Z,13.97
2017-08-19T19:17:37.861Z,13.67
2017-08-19T19:20:05.074Z,14.20
2017-08-19T19:22:32.055Z,13.40
2017-08-19T19:24:59.053Z,14.43
2017-08-19T19:27:26.650Z,13.30
2017-08-19T19:29:54.146Z,13.80
2017-08-19T19:32:21.122Z,15.60
2017-08-19T19:34:48.073Z,13.07
2017-08-19T19:37:15.012Z,14.10
2017-08-19T19:39:41.990Z,12.40
2017-08-19T19:42:08.949Z,12.40
2017-08-19T19:44:35.961Z,12.93
2017-08-19T19:47:02.984Z,13.00
2017-08-19T19:49:29.952Z,13.03
2017-08-19T19:51:57.009Z,13.53
2017-08-19T19:54:24.688Z,12.10
2017-08-19T19:56:51.726Z,12.63
2017-08-19T19:59:18.684Z,12.53
2017-08-19T20:01:45.696Z,12.27
2017-08-19T20:04:12.660Z,11.63
2017-08-19T20:06:39.563Z,12.03
2017-08-19T20:09:06.636Z,12.10
2017-08-19T20:11:33.577Z,12.73
2017-08-19T20:14:00.532Z,12.70
2017-08-19T20:16:27.641Z,11.97
2017-08-19T20:18:54.638Z,12.53
2017-08-19T20:21:21.715Z,11.33
2017-08-19T20:23:48.718Z,12.93
2017-08-19T20:26:16.294Z,12.37
2017-08-19T20:28:43.229Z,14.33
2017-08-19T20:31:10.238Z,14.00
2017-08-19T20:33:37.156Z,12.37
2017-08-19T20:36:04.119Z,13.30
2017-08-19T20:38:31.096Z,11.70
2017-08-19T20:40:58.049Z,11.47
2017-08-19T20:43:24.935Z,13.63
2017-08-19T20:45:51.848Z,13.73
2017-08-19T20:48:19.166Z,13.30
2017-08-19T20:50:46.090Z,14.97
2017-08-19T20:53:13.079Z,13.40
2017-08-19T20:55:40.020Z,12.43
2017-08-19T20:58:07.652Z,13.20
2017-08-19T21:00:34.626Z,13.73
2017-08-19T21:03:01.573Z,13.67
2017-08-19T21:05:28.553Z,13.33
2017-08-19T21:07:55.550Z,12.80
2017-08-19T21:10:22.504Z,13.17
2017-08-19T21:12:49.426Z,12.53
2017-08-19T21:15:16.436Z,10.50
2017-08-19T21:17:43.339Z,11.50
2017-08-19T21:20:10.284Z,11.03
2017-08-19T21:22:37.317Z,11.87
2017-08-19T21:25:04.255Z,10.37
2017-08-19T21:27:31.205Z,14.43
2017-08-19T21:29:58.187Z,10.80
2017-08-19T21:32:25.108Z,11.50
2017-08-19T21:34:52.066Z,11.70
2017-08-19T21:37:19.088Z,10.90
2017-08-19T21:39:46.038Z,11.37
2017-08-19T21:42:12.958Z,10.33
2017-08-19T21:44:39.914Z,10.60
2017-08-19T21:47:06.930Z,11.00
2017-08-19T21:49:33.885Z,10.27
2017-08-19T21:52:00.879Z,11.57
2017-08-19T21:54:27.748Z,10.63
2017-08-19T21:56:54.625Z,12.00
2017-08-19T21:59:21.582Z,11.67
2017-08-19T22:01:49.435Z,12.37
2017-08-19T22:04:17.081Z,11.03
2017-08-19T22:06:44.037Z,11.87
2017-08-19T22:09:10.968Z,11.40
2017-08-19T22:11:38.851Z,12.10
2017-08-19T22:14:05.884Z,11.70
2017-08-19T22:16:33.470Z,11.10
2017-08-19T22:19:00.435Z,10.77
2017-08-19T22:21:27.356Z,11.13
2017-08-19T22:23:54.277Z,12.50
2017-08-19T22:26:21.230Z,10.17
2017-08-19T22:28:48.273Z,12.17
2017-08-19T22:31:15.282Z,11.70
2017-08-19T22:33:42.228Z,11.30
2017-08-19T22:36:10.202Z,10.90
2017-08-19T22:38:37.162Z,10.50
2017-08-19T22:41:04.109Z,11.10
2017-08-19T22:43:31.513Z,10.87
2017-08-19T22:45:58.458Z,11.40
2017-08-19T22:48:25.494Z,11.40
2017-08-19T22:50:52.504Z,11.20
2017-08-19T22:53:19.406Z,12.97
2017-08-19T22:55:46.503Z,12.43
2017-08-19T22:58:13.473Z,12.20
2017-08-19T23:00:40.416Z,11.87
2017-08-19T23:03:08.256Z,12.23
2017-08-19T23:05:35.640Z,12.37
2017-08-19T23:08:02.569Z,11.70
2017-08-19T23:10:29.474Z,12.70
2017-08-19T23:12:56.455Z,11.67
2017-08-19T23:15:23.352Z,10.87
2017-08-19T23:17:50.348Z,11.93
2017-08-19T23:20:18.304Z,11.30
2017-08-19T23:22:45.573Z,11.87
2017-08-19T23:25:12.504Z,12.30
2017-08-19T23:27:39.664Z,11.33
2017-08-19T23:30:07.539Z,11.07
2017-08-19T23:32:34.433Z,11.10
2017-08-19T23:35:01.468Z,13.27
2017-08-19T23:37:28.403Z,10.93
2017-08-19T23:39:55.312Z,12.67
2017-08-19T23:42:22.273Z,11.87
2017-08-19T23:44:49.287Z,10.73
2017-08-19T23:47:16.262Z,11.57
2017-08-19T23:49:43.712Z,11.03
2017-08-19T23:52:10.690Z,10.93
2017-08-19T23:54:37.603Z,12.63
2017-08-19T23:57:04.539Z,11.40
2017-08-19T23:59:31.522Z,11.13
